首页
METAR-TAF:

METAR-TAF

机场 :

乔莫·肯雅塔国际机场

奈洛比, 肯尼亚

纬度: 01-19S, 经度: 036-55E, 海拔: 1624米

当前天气观测

该预报发布于34分钟前的20:00 UTC
风速7节,风向北转东北
温度 19°C
湿度 73%
气压 1023 hPa
能见度10公里或以上
1500米以下无云,无积雨云

METAR: HKJK 202000Z 02007KT CAVOK 19/14 Q1023 NOSIG

时间: 23:34 (20:34 UTC)

预报

该预报发布于3小时和34分钟前的17:00 UTC
预报有效从20日的 18点(UTC)到 21日的 24点(UTC)
风速12节,风向东北
能见度10公里或以上
少量云层高于2300英尺
成为
从 20日的 20点(UTC)到 20日的 23点(UTC)
风速10节,风向东北
少量云层高于2100英尺
多云层高于8000英尺
短暂存在
从 21日的 00点(UTC)到 21日的 06点(UTC)
风速5节,风向东转东北
少量云层高于1000英尺
多云层高于1800英尺
小雨
短暂存在
从 21日的 09点(UTC)到 21日的 15点(UTC)
风速10节,风向东北
少量云层高于2300英尺, 积雨云.
散云层高于2400英尺
多云层高于8000英尺
小雨
成为
从 21日的 15点(UTC)到 21日的 18点(UTC)
少量云层高于2100英尺, 积雨云.
散云层高于2300英尺
成为
从 21日的 18点(UTC)到 21日的 23点(UTC)
风速9节,风向东北
多云层高于2300英尺

TAF: HKJK 201700Z 2018/2124 05012KT 9999 FEW023 BECMG 2020/2023 05010KT FEW021 BKN080 TEMPO 2100/2106 06005KT -RA FEW010 BKN018 TEMPO 2109/2115 04010KT -RA FEW023CB SCT024 BKN080 BECMG 2115/2118 FEW021CB SCT023 BECMG 2118/2123 04009KT BKN023

超过4000个机场的气象观测和天气预报(METAR&TAF报告)。

可查询的气象台以黄色和红色小点在地图上表示。

将鼠标移到小点上方,可查看气象台名称。

然后点击查看天气观测和预报。

如需切换地图:点击带黑十字的绿色按钮放大地图;点击带横线的绿色按钮缩小地图;或者点击绿色箭头查看邻近地区的地图。


METAR-TAF: